KRWL/RWL METAR and TAF weather

Enter ICAO airport designator
Station Type Date Time Source
KRWL METAR 2020/06/06 13:53 UTC NOAA

KRWL 061353Z AUTO 19014G25KT 10SM FEW080 SCT120 17/08 A2997 RMK AO2 SLP040 T01670078


Station Type Date Time Source
KRWL Decoded METAR 2020/06/06 13:53 UTC NOAA

RAWLINS MUNICIPAL AIRPORT, WY, United States (KRWL) 41-48N 107-12W
Jun 06, 2020 - 09:53 AM EDT / 2020.06.06 1353 UTC
Wind: from the S (190 degrees) at 16 MPH (14 KT) gusting to 29 MPH (25 KT):0
Visibility: 10 mile(s):0
Sky conditions: partly cloudy
Temperature: 62.1 F (16.7 C)
Dew Point: 46.0 F (7.8 C)
Relative Humidity: 55%
Pressure (altimeter): 29.97 in. Hg (1014 hPa)
ob: KRWL 061353Z AUTO 19014G25KT 10SM FEW080 SCT120 17/08 A2997 RMK AO2 SLP040 T01670078
cycle: 14

Station Type Date Time Source
KRWL TAF 2020/06/06 12:22 UTC NOAA

TAF KRWL 061120Z 0612/0712 21020G33KT P6SM BKN090
FM061500 23025G35KT P6SM BKN090
FM061800 23025G35KT P6SM VCTS BKN090CB
TEMPO 0618/0622 VRB25G45KT 4SM TSRA BKN050CB
FM070000 23020G30KT P6SM SCT090

Example: see airport list